createdAt,value
2018-06-21T00:01:30.128Z,101098.39
2018-06-21T00:06:34.191Z,101085.05
2018-06-21T00:11:37.335Z,101085.50
2018-06-21T00:16:40.631Z,101077.37
2018-06-21T00:21:44.020Z,101075.45
2018-06-21T00:26:47.124Z,101072.74
2018-06-21T00:31:50.346Z,101066.52
2018-06-21T00:36:53.901Z,101063.27
2018-06-21T00:41:57.081Z,101065.67
2018-06-21T00:47:00.260Z,101057.03
2018-06-21T00:52:03.405Z,101050.45
2018-06-21T00:57:06.458Z,101037.55
2018-06-21T01:02:10.050Z,101035.47
2018-06-21T01:07:13.190Z,101038.92
2018-06-21T01:12:16.312Z,101029.98
2018-06-21T01:17:19.386Z,101030.58
2018-06-21T01:22:22.462Z,101023.39
2018-06-21T01:27:25.638Z,101007.06
2018-06-21T01:32:28.818Z,101002.44
2018-06-21T01:37:31.972Z,100993.73
2018-06-21T01:42:35.161Z,100993.62
2018-06-21T01:47:38.292Z,100987.52
2018-06-21T01:52:41.603Z,100978.34
2018-06-21T01:57:44.740Z,100976.22
2018-06-21T02:02:47.870Z,100980.52
2018-06-21T02:07:51.005Z,100966.01
2018-06-21T02:12:54.392Z,100966.84
2018-06-21T02:17:57.796Z,100959.97
2018-06-21T02:23:00.993Z,100965.55
2018-06-21T02:28:04.247Z,100959.83
2018-06-21T02:33:07.427Z,100954.00
2018-06-21T02:38:10.516Z,100945.65
2018-06-21T02:43:14.769Z,100947.00
2018-06-21T02:48:17.880Z,100939.42
2018-06-21T02:53:21.255Z,100931.98
2018-06-21T02:58:24.421Z,100932.05
2018-06-21T03:03:27.670Z,100918.32
2018-06-21T03:08:30.799Z,100912.59
2018-06-21T03:13:33.950Z,100911.78
2018-06-21T03:18:37.076Z,100907.05
2018-06-21T03:23:40.194Z,100901.57
2018-06-21T03:28:43.344Z,100886.75
2018-06-21T03:33:46.483Z,100891.89
2018-06-21T03:38:49.580Z,100882.55
2018-06-21T03:43:52.899Z,100881.45
2018-06-21T03:48:56.224Z,100877.94
2018-06-21T03:53:59.394Z,100880.87
2018-06-21T03:59:02.590Z,100868.41
2018-06-21T04:04:05.771Z,100859.58
2018-06-21T04:09:08.893Z,100857.26
2018-06-21T04:14:12.094Z,100853.52
2018-06-21T04:19:15.375Z,100838.01
2018-06-21T04:24:18.609Z,100834.89
2018-06-21T04:29:21.717Z,100823.45
2018-06-21T04:34:24.989Z,100824.20
2018-06-21T04:39:28.199Z,100817.45
2018-06-21T04:44:31.365Z,100818.66
2018-06-21T04:49:34.461Z,100821.03
2018-06-21T04:54:37.556Z,100810.66
2018-06-21T04:59:40.741Z,100809.33
2018-06-21T05:04:43.897Z,100797.66
2018-06-21T05:09:47.068Z,100798.20
2018-06-21T05:14:50.256Z,100794.80
2018-06-21T05:19:53.398Z,100805.97
2018-06-21T05:24:58.317Z,100796.91
2018-06-21T05:30:01.867Z,100788.05
2018-06-21T05:35:04.965Z,100786.92
2018-06-21T05:40:17.923Z,100775.33
2018-06-21T05:45:21.037Z,100778.58
2018-06-21T05:50:24.192Z,100766.14
2018-06-21T05:55:27.477Z,100755.95
2018-06-21T06:00:30.694Z,100743.78
2018-06-21T06:05:33.887Z,100744.33
2018-06-21T06:10:36.959Z,100729.97
2018-06-21T06:15:40.037Z,100724.72
2018-06-21T06:20:43.226Z,100723.08
2018-06-21T06:25:46.378Z,100715.37
2018-06-21T06:30:49.608Z,100705.55
2018-06-21T06:35:52.719Z,100703.70
2018-06-21T06:40:56.042Z,100694.70
2018-06-21T06:45:59.224Z,100688.72
2018-06-21T06:51:02.416Z,100690.52
2018-06-21T06:56:05.544Z,100683.84
2018-06-21T07:01:08.770Z,100663.04
2018-06-21T07:06:11.830Z,100668.34
2018-06-21T07:11:30.559Z,100655.43
2018-06-21T07:22:02.217Z,100620.28
2018-06-21T07:27:05.935Z,100607.13
2018-06-21T07:32:09.081Z,100595.30
2018-06-21T07:37:12.187Z,100587.38
2018-06-21T07:42:15.324Z,100568.20
2018-06-21T07:47:18.520Z,100561.95
2018-06-21T07:52:21.602Z,100540.41
2018-06-21T07:57:24.695Z,100521.82
2018-06-21T08:02:28.049Z,100523.42
2018-06-21T08:07:31.252Z,100518.70
2018-06-21T08:12:34.451Z,100517.97
2018-06-21T08:17:37.557Z,100507.00
2018-06-21T08:22:40.657Z,100502.06
2018-06-21T08:27:43.872Z,100494.95
2018-06-21T08:32:47.083Z,100487.02
2018-06-21T08:37:50.200Z,100474.09
2018-06-21T08:42:53.397Z,100469.27
2018-06-21T08:47:56.992Z,100455.89
2018-06-21T08:53:00.481Z,100454.18
2018-06-21T08:58:03.745Z,100451.13
2018-06-21T09:03:07.108Z,100435.22
2018-06-21T09:08:10.678Z,100423.56
2018-06-21T09:13:13.891Z,100410.77
2018-06-21T09:18:17.033Z,100404.81
2018-06-21T09:23:20.179Z,100398.60
2018-06-21T09:28:23.499Z,100398.62
2018-06-21T09:33:26.684Z,100386.85
2018-06-21T09:38:29.930Z,100383.37
2018-06-21T09:43:33.277Z,100373.22
2018-06-21T09:48:37.723Z,100372.48
2018-06-21T09:53:41.776Z,100392.01
2018-06-21T09:58:45.067Z,100356.47
2018-06-21T10:03:48.225Z,100360.73
2018-06-21T10:08:51.388Z,100342.77
2018-06-21T10:13:56.217Z,100337.91
2018-06-21T10:18:59.891Z,100346.43
2018-06-21T10:24:03.275Z,100344.54
2018-06-21T10:29:06.840Z,100355.33
2018-06-21T10:34:11.128Z,100434.55
2018-06-21T10:39:15.119Z,100493.91
2018-06-21T10:44:18.174Z,100536.89
2018-06-21T10:49:21.287Z,100628.86
2018-06-21T10:54:25.052Z,100572.55
2018-06-21T10:59:29.933Z,100591.68
2018-06-21T11:04:34.079Z,100614.58
2018-06-21T11:09:37.606Z,100644.47
2018-06-21T11:14:41.007Z,100652.16
2018-06-21T11:19:44.271Z,100653.28
2018-06-21T11:24:47.490Z,100655.45
2018-06-21T11:29:50.624Z,100664.59
2018-06-21T11:34:54.616Z,100697.44
2018-06-21T11:40:00.074Z,100675.74
2018-06-21T11:45:04.157Z,100694.79
2018-06-21T11:50:08.175Z,100716.06
2018-06-21T11:55:11.387Z,100742.03
2018-06-21T12:00:14.746Z,100761.46
2018-06-21T12:05:17.958Z,100803.58
2018-06-21T12:10:21.120Z,100815.64
2018-06-21T12:15:25.246Z,100798.49
2018-06-21T12:20:29.505Z,100821.02
2018-06-21T12:25:33.520Z,100869.94
2018-06-21T12:30:37.630Z,100880.24
2018-06-21T12:35:41.959Z,100865.56
2018-06-21T12:40:45.115Z,100848.26
2018-06-21T12:45:48.289Z,100842.91
2018-06-21T12:50:51.400Z,100837.77
2018-06-21T12:55:56.562Z,100841.45
2018-06-21T13:01:00.554Z,100850.22
2018-06-21T13:06:13.611Z,100845.34
2018-06-21T13:11:28.450Z,100830.94
2018-06-21T13:16:31.910Z,100837.81
2018-06-21T13:21:35.793Z,100850.85
2018-06-21T13:26:39.473Z,100866.64
2018-06-21T13:31:43.102Z,100845.94
2018-06-21T13:36:47.855Z,100864.35
2018-06-21T13:41:50.963Z,100857.86
2018-06-21T13:46:56.300Z,100870.89
2018-06-21T13:52:01.676Z,100937.50
2018-06-21T13:57:07.030Z,100930.73
2018-06-21T14:02:10.636Z,100940.51
2018-06-21T14:07:13.788Z,100955.23
2018-06-21T14:12:16.990Z,100971.27
2018-06-21T14:17:20.205Z,100975.75
2018-06-21T14:22:23.911Z,100983.88
2018-06-21T14:27:30.565Z,100985.57
2018-06-21T14:32:35.367Z,100990.38
2018-06-21T14:37:38.562Z,100986.31
2018-06-21T14:42:41.760Z,100977.06
2018-06-21T14:47:44.948Z,100994.25
2018-06-21T14:52:48.028Z,100990.49
2018-06-21T14:57:51.122Z,100982.07
2018-06-21T15:02:55.848Z,100965.00
2018-06-21T15:07:59.225Z,100969.25
2018-06-21T15:13:02.809Z,100965.33
2018-06-21T15:18:06.198Z,100962.87
2018-06-21T15:23:09.592Z,100940.77
2018-06-21T15:28:12.717Z,100958.09
2018-06-21T15:33:15.898Z,100972.56
2018-06-21T15:38:19.057Z,100981.67
2018-06-21T15:43:22.500Z,100956.33
2018-06-21T15:48:26.569Z,100989.11
2018-06-21T15:53:31.577Z,100990.05
2018-06-21T15:58:34.947Z,100995.26
2018-06-21T16:03:38.202Z,101005.02
2018-06-21T16:08:41.422Z,101011.77
2018-06-21T16:13:46.059Z,101022.25
2018-06-21T16:18:49.257Z,101031.93
2018-06-21T16:23:52.993Z,101032.30
2018-06-21T16:28:57.122Z,101046.66
2018-06-21T16:34:00.352Z,101040.73
2018-06-21T16:39:05.625Z,101044.44
2018-06-21T16:44:09.159Z,101054.52
2018-06-21T16:49:12.347Z,101056.07
2018-06-21T16:54:15.655Z,101064.15
2018-06-21T16:59:18.830Z,101068.95
2018-06-21T17:04:21.977Z,101088.42
2018-06-21T17:09:25.810Z,101090.48
2018-06-21T17:14:29.289Z,101099.10
2018-06-21T17:19:32.538Z,101100.73
2018-06-21T17:24:35.815Z,101105.14
2018-06-21T17:29:39.024Z,101105.98
2018-06-21T17:34:42.149Z,101110.55
2018-06-21T17:39:45.275Z,101115.52
2018-06-21T17:44:48.318Z,101113.33
2018-06-21T17:49:51.534Z,101125.30
2018-06-21T17:54:56.809Z,101123.89
2018-06-21T18:00:01.018Z,101136.92
2018-06-21T18:05:05.052Z,101145.27
2018-06-21T18:10:08.641Z,101144.86
2018-06-21T18:15:11.821Z,101148.39
2018-06-21T18:20:14.984Z,101152.67
2018-06-21T18:25:18.231Z,101156.88
2018-06-21T18:30:21.420Z,101173.02
2018-06-21T18:35:24.940Z,101171.53
2018-06-21T18:40:28.345Z,101171.02
2018-06-21T18:45:31.559Z,101179.14
2018-06-21T18:50:34.825Z,101190.13
2018-06-21T18:55:38.042Z,101189.45
2018-06-21T19:00:41.172Z,101205.55
2018-06-21T19:05:44.684Z,101214.09
2018-06-21T19:10:48.066Z,101219.75
2018-06-21T19:15:51.586Z,101225.70
2018-06-21T19:20:56.790Z,101237.27
2018-06-21T19:26:00.315Z,101245.66
2018-06-21T19:31:04.638Z,101251.09
2018-06-21T19:36:07.822Z,101255.08
2018-06-21T19:41:11.125Z,101272.97
2018-06-21T19:46:14.378Z,101269.72
2018-06-21T19:51:19.409Z,101277.13
2018-06-21T19:56:22.784Z,101282.69
2018-06-21T20:01:26.470Z,101284.48
2018-06-21T20:06:30.152Z,101281.47
2018-06-21T20:11:34.292Z,101284.94
2018-06-21T20:16:37.669Z,101285.80
2018-06-21T20:21:41.124Z,101296.05
2018-06-21T20:26:50.084Z,101304.01
2018-06-21T20:31:56.661Z,101315.45
2018-06-21T20:37:00.534Z,101315.11
2018-06-21T20:42:03.913Z,101327.38
2018-06-21T20:47:07.458Z,101322.09
2018-06-21T20:52:11.237Z,101323.44
2018-06-21T20:57:14.784Z,101331.18
2018-06-21T21:02:19.591Z,101330.55
2018-06-21T21:07:23.524Z,101326.03
2018-06-21T21:12:28.800Z,101323.55
2018-06-21T21:17:37.091Z,101341.52
2018-06-21T21:22:42.364Z,101330.42
2018-06-21T21:27:45.488Z,101330.44
2018-06-21T21:32:48.631Z,101334.27
2018-06-21T21:37:51.799Z,101327.56
2018-06-21T21:42:55.220Z,101319.85
2018-06-21T21:47:58.488Z,101315.09
2018-06-21T21:53:02.031Z,101336.61
2018-06-21T21:58:05.542Z,101331.38
2018-06-21T22:03:09.196Z,101333.86
2018-06-21T22:08:12.385Z,101322.63
2018-06-21T22:13:15.616Z,101336.25
2018-06-21T22:18:19.356Z,101335.91
2018-06-21T22:23:22.561Z,101339.83
2018-06-21T22:28:26.731Z,101329.01
2018-06-21T22:33:30.326Z,101332.49
2018-06-21T22:38:33.462Z,101328.95
2018-06-21T22:43:36.571Z,101320.56
2018-06-21T22:48:39.796Z,101324.23
2018-06-21T22:53:42.939Z,101320.56
2018-06-21T22:58:46.136Z,101331.09
2018-06-21T23:03:49.250Z,101330.94
2018-06-21T23:08:52.392Z,101329.28
2018-06-21T23:13:55.845Z,101329.15
2018-06-21T23:19:10.126Z,101320.48
2018-06-21T23:24:13.562Z,101317.66
2018-06-21T23:29:16.891Z,101318.11
2018-06-21T23:34:20.056Z,101318.00
2018-06-21T23:39:23.669Z,101310.69
